Time;durP1;ratioP1;P1;durP2;ratioP2;P2;SDS_P1;SDS_P2;PMS_P1;PMS_P2;Temp;Humidity;BMP_temperature;BMP_pressure;BME280_temperature;BME280_humidity;BME280_pressure;Samples;Min_cycle;Max_cycle;Signal;HPM_P1;HPM_P2
2022/09/19 00:01:19;;;;;;;6.43;5.30;;;;;;;20.04;54.20;101911.97;5108531;28;20052;-77
2022/09/19 00:03:50;;;;;;;7.80;5.10;;;;;;;20.04;54.29;101917.19;5103383;27;20047;-80
2022/09/19 00:06:17;;;;;;;8.15;5.13;;;;;;;20.03;54.17;101907.59;5107486;28;20051;-79
2022/09/19 00:08:44;;;;;;;8.18;5.03;;;;;;;20.03;54.21;101913.69;5129861;27;20050;-77
2022/09/19 00:11:11;;;;;;;9.13;5.30;;;;;;;20.03;54.21;101911.09;5091207;28;20139;-77
2022/09/19 00:13:41;;;;;;;7.93;4.75;;;;;;;20.04;54.09;101912.84;5101571;27;20396;-79
2022/09/19 00:16:06;;;;;;;6.35;5.15;;;;;;;20.03;54.05;101912.84;5108399;28;20472;-79
2022/09/19 00:18:32;;;;;;;6.75;4.72;;;;;;;20.03;54.10;101910.22;5101464;28;20123;-79
2022/09/19 00:20:57;;;;;;;9.25;5.20;;;;;;;20.02;53.92;101909.34;5088492;27;20058;-78
2022/09/19 00:26:01;;;;;;;6.88;5.03;;;;;;;20.03;53.93;101911.09;5088190;27;20218;-79
2022/09/19 00:28:27;;;;;;;7.75;5.13;;;;;;;20.04;54.15;101911.97;5133142;27;20076;-80
2022/09/19 00:30:54;;;;;;;6.22;4.78;;;;;;;20.03;53.98;101918.06;5089215;27;20051;-79
2022/09/19 00:33:21;;;;;;;6.75;4.88;;;;;;;20.03;53.98;101913.69;5087579;28;20054;-79
2022/09/19 00:35:50;;;;;;;6.35;4.53;;;;;;;20.03;53.86;101918.06;5086702;27;20051;-79
2022/09/19 00:38:16;;;;;;;6.93;5.10;;;;;;;20.01;53.89;101920.69;5086232;28;20398;-78
2022/09/19 00:40:41;;;;;;;6.00;4.63;;;;;;;20.02;53.94;101919.81;5085433;27;20043;-78
2022/09/19 00:43:13;;;;;;;5.78;4.53;;;;;;;20.02;53.86;101919.81;5091083;28;20056;-80
2022/09/19 00:45:38;;;;;;;6.95;4.40;;;;;;;20.02;53.83;101919.81;5128263;27;20059;-79
2022/09/19 00:48:04;;;;;;;9.68;5.25;;;;;;;20.01;53.80;101923.31;5070853;28;20070;-79
2022/09/19 00:50:30;;;;;;;6.72;4.65;;;;;;;20.01;53.98;101920.69;5100696;27;20044;-79
2022/09/19 00:53:06;;;;;;;6.18;4.93;;;;;;;20.00;54.00;101916.34;5083124;28;20051;-80
2022/09/19 00:55:31;;;;;;;6.43;4.60;;;;;;;20.01;53.72;101917.19;5110527;28;20047;-79
2022/09/19 00:58:24;;;;;;;6.25;4.40;;;;;;;20.02;53.96;101918.94;5058222;27;20044;-80
2022/09/19 01:00:50;;;;;;;6.82;4.40;;;;;;;20.01;53.85;101917.19;5103848;27;20051;-79
2022/09/19 01:03:15;;;;;;;6.05;4.45;;;;;;;20.02;53.83;101921.56;5105969;27;20043;-79
2022/09/19 01:05:55;;;;;;;5.65;4.20;;;;;;;20.01;53.50;101920.69;5103563;27;20511;-79
2022/09/19 01:11:01;;;;;;;7.20;4.20;;;;;;;20.00;53.82;101916.34;5121994;27;21152;-78
2022/09/19 01:13:38;;;;;;;5.97;4.45;;;;;;;20.01;53.83;101923.31;5104194;28;20032;-79
2022/09/19 01:16:20;;;;;;;5.80;4.22;;;;;;;20.02;53.68;101921.56;5112273;27;20051;-79
2022/09/19 01:19:05;;;;;;;5.57;4.20;;;;;;;20.00;53.53;101913.72;5110944;27;20086;-79
2022/09/19 01:21:40;;;;;;;5.07;3.90;;;;;;;20.01;53.86;101914.59;5103851;27;20108;-79
2022/09/19 01:27:09;;;;;;;4.75;4.22;;;;;;;19.99;53.73;101916.31;5129539;27;20134;-80
2022/09/19 01:29:48;;;;;;;5.88;4.10;;;;;;;20.00;53.66;101921.56;5102539;27;20040;-79
2022/09/19 01:32:22;;;;;;;6.18;4.18;;;;;;;19.99;53.52;101917.22;5106154;28;20055;-79
2022/09/19 01:34:53;;;;;;;7.32;4.57;;;;;;;19.99;53.42;101914.59;5102259;27;20070;-80
2022/09/19 01:37:27;;;;;;;7.35;4.22;;;;;;;19.99;53.48;101914.59;5105051;28;20048;-78
2022/09/19 01:39:56;;;;;;;4.80;4.00;;;;;;;19.99;53.44;101913.72;5107161;28;20055;-78
2022/09/19 01:42:22;;;;;;;6.20;4.05;;;;;;;19.99;53.64;101916.31;5083671;28;20054;-80
2022/09/19 01:44:48;;;;;;;5.22;3.90;;;;;;;19.99;53.34;101919.84;5101827;27;20535;-80
2022/09/19 01:47:25;;;;;;;5.88;3.97;;;;;;;19.99;53.48;101919.84;5105693;28;20039;-80
2022/09/19 01:49:54;;;;;;;4.72;3.97;;;;;;;20.00;53.57;101920.69;5102260;27;20057;-80
2022/09/19 01:55:06;;;;;;;7.32;4.00;;;;;;;20.00;53.52;101920.69;5129001;27;20047;-80
2022/09/19 01:58:10;;;;;;;4.88;3.75;;;;;;;20.00;53.36;101931.16;5128975;27;20047;-78
2022/09/19 02:00:41;;;;;;;6.07;3.63;;;;;;;20.00;53.39;101925.91;5101617;28;20039;-78
2022/09/19 02:06:06;;;;;;;5.93;4.27;;;;;;;19.99;53.44;101924.16;5128611;27;20470;-78
2022/09/19 02:08:59;;;;;;;5.00;3.70;;;;;;;19.99;53.38;101932.00;5110463;27;20331;-79
2022/09/19 02:11:26;;;;;;;;;;;;;;;19.99;53.58;101926.78;5091370;27;20044;-79
2022/09/19 02:13:57;;;;;;;4.18;3.08;;;;;;;19.99;53.38;101924.16;5106842;28;19924;-78
2022/09/19 02:19:07;;;;;;;6.22;4.10;;;;;;;19.98;53.45;101932.88;5128327;27;20090;-80
2022/09/19 02:21:48;;;;;;;5.73;3.50;;;;;;;19.99;53.45;101932.00;5102069;27;20127;-81
2022/09/19 02:24:17;;;;;;;5.93;3.88;;;;;;;19.98;53.24;101933.75;5105336;28;20040;-80
2022/09/19 02:26:48;;;;;;;5.65;3.78;;;;;;;19.97;53.51;101929.41;5100364;27;20511;-81
2022/09/19 02:29:19;;;;;;;5.32;3.67;;;;;;;19.98;53.42;101944.19;5130457;27;20051;-81
2022/09/19 02:31:46;;;;;;;4.53;3.22;;;;;;;19.99;53.27;101939.84;5057842;28;20052;-80
2022/09/19 02:34:12;;;;;;;5.22;3.35;;;;;;;19.98;53.40;101941.59;5083272;28;20066;-80
2022/09/19 02:37:07;;;;;;;5.97;3.38;;;;;;;19.99;53.40;101942.44;5099347;27;20052;-80
2022/09/19 02:39:44;;;;;;;4.78;3.42;;;;;;;19.99;53.86;101945.06;5101576;28;20101;-80
2022/09/19 02:42:09;;;;;;;4.57;3.50;;;;;;;19.97;53.31;101942.47;5130027;27;20492;-80
2022/09/19 02:45:16;;;;;;;4.43;3.22;;;;;;;19.97;53.28;101937.25;5100770;28;20031;-81
2022/09/19 02:48:09;;;;;;;4.40;3.50;;;;;;;19.97;53.36;101932.03;5098482;28;20040;-79
2022/09/19 02:50:49;;;;;;;4.35;3.28;;;;;;;19.98;53.30;101940.72;5099156;28;20067;-80
2022/09/19 02:53:29;;;;;;;4.15;3.58;;;;;;;19.97;53.26;101931.13;5105039;28;20077;-80
2022/09/19 02:55:56;;;;;;;5.25;3.22;;;;;;;19.97;53.47;101939.88;5127762;28;20107;-80
2022/09/19 03:00:54;;;;;;;4.18;3.00;;;;;;;19.97;53.34;101933.75;5128109;28;20151;-79
2022/09/19 03:05:53;;;;;;;5.00;3.30;;;;;;;19.97;53.06;101944.19;5128367;27;21710;-79
2022/09/19 03:08:24;;;;;;;4.50;3.20;;;;;;;19.97;53.42;101946.81;5112162;28;20051;-81
2022/09/19 03:10:53;;;;;;;4.63;3.20;;;;;;;19.97;53.39;101945.09;5102512;28;20055;-80
2022/09/19 03:13:22;;;;;;;4.55;3.35;;;;;;;19.97;53.23;101946.81;5105240;28;20504;-80
2022/09/19 03:16:17;;;;;;;4.93;3.50;;;;;;;19.96;53.27;101943.34;5069816;28;21121;-80
2022/09/19 03:18:49;;;;;;;5.80;3.20;;;;;;;19.97;53.26;101941.59;5098429;28;20055;-78
2022/09/19 03:21:20;;;;;;;6.43;3.28;;;;;;;19.97;53.09;101931.13;5104697;28;20051;-78
2022/09/19 03:23:48;;;;;;;4.10;3.10;;;;;;;19.97;53.30;101944.19;5100364;28;20193;-79
2022/09/19 03:26:19;;;;;;;4.63;3.05;;;;;;;19.96;53.06;101932.88;5130096;28;20067;-81
2022/09/19 03:28:45;;;;;;;4.45;3.10;;;;;;;19.96;53.19;101937.25;5100798;27;20066;-81
2022/09/19 03:31:10;;;;;;;4.07;2.85;;;;;;;19.96;53.27;101937.25;5092288;28;20044;-79
2022/09/19 03:33:36;;;;;;;4.50;2.92;;;;;;;19.97;53.11;101954.66;5088109;27;20197;-79
2022/09/19 03:36:07;;;;;;;3.75;2.60;;;;;;;19.96;53.39;101945.09;5083420;27;20040;-78
2022/09/19 03:38:40;;;;;;;4.18;3.00;;;;;;;19.97;53.15;101954.66;5106433;28;20039;-79
2022/09/19 03:41:05;;;;;;;4.57;3.10;;;;;;;19.96;53.12;101952.91;5109765;28;20485;-80
2022/09/19 03:43:31;;;;;;;3.85;2.90;;;;;;;19.96;53.31;101950.31;5110790;27;20058;-81
2022/09/19 03:45:56;;;;;;;3.80;2.78;;;;;;;19.96;53.14;101947.69;5105095;27;20043;-77
2022/09/19 03:48:22;;;;;;;5.47;2.83;;;;;;;19.96;53.14;101950.31;5107060;27;20488;-79
2022/09/19 03:50:48;;;;;;;4.30;3.03;;;;;;;19.94;53.31;101945.94;5087545;27;20120;-78
2022/09/19 03:53:13;;;;;;;4.38;2.88;;;;;;;19.96;53.29;101952.91;5087569;28;20058;-78
2022/09/19 03:55:41;;;;;;;4.38;2.58;;;;;;;19.94;53.22;101951.16;5102857;27;20055;-78
2022/09/19 03:58:09;;;;;;;3.60;2.60;;;;;;;19.94;53.09;101948.56;5089566;28;20043;-79
2022/09/19 04:00:35;;;;;;;3.53;2.70;;;;;;;19.94;53.17;101958.13;5089790;27;1175088;-78
2022/09/19 04:03:00;;;;;;;5.25;2.80;;;;;;;19.95;53.28;101957.28;5092708;28;20366;-81
2022/09/19 04:05:26;;;;;;;3.65;2.63;;;;;;;19.94;52.99;101955.53;5102372;28;20043;-79
2022/09/19 04:07:51;;;;;;;3.80;2.60;;;;;;;19.95;52.64;101962.50;5075825;28;21448;-78
2022/09/19 04:10:17;;;;;;;3.35;2.50;;;;;;;19.94;53.18;101964.22;5085665;28;20044;-80
2022/09/19 04:12:42;;;;;;;3.80;2.75;;;;;;;19.93;53.18;101965.13;5102556;27;20051;-78
2022/09/19 04:15:08;;;;;;;4.32;2.75;;;;;;;19.93;53.02;101972.94;5074559;28;20135;-79
2022/09/19 04:17:34;;;;;;;3.70;2.65;;;;;;;19.93;53.07;101970.34;5084768;28;20048;-77
2022/09/19 04:19:59;;;;;;;5.93;2.90;;;;;;;19.93;53.03;101975.56;5092423;28;20044;-80
2022/09/19 04:22:25;;;;;;;4.65;2.80;;;;;;;19.94;52.98;101979.03;5085039;28;20044;-78
2022/09/19 04:24:51;;;;;;;3.83;2.67;;;;;;;19.93;53.04;101972.94;5092357;28;20109;-77
2022/09/19 04:27:17;;;;;;;3.55;2.60;;;;;;;19.93;53.18;101972.94;5092485;27;20040;-79
2022/09/19 04:29:42;;;;;;;4.30;2.50;;;;;;;19.92;53.03;101978.16;5086749;27;20143;-80
2022/09/19 04:32:08;;;;;;;3.25;2.47;;;;;;;19.92;53.12;101986.91;5091542;28;20130;-79
2022/09/19 04:34:34;;;;;;;3.97;2.70;;;;;;;19.92;52.88;101979.06;5101575;28;20048;-80
2022/09/19 04:37:02;;;;;;;3.42;2.42;;;;;;;19.93;53.08;101982.53;5105618;27;20560;-79
2022/09/19 04:39:28;;;;;;;3.97;2.65;;;;;;;19.92;53.05;101975.56;5088165;27;20410;-79
2022/09/19 04:41:53;;;;;;;3.20;2.70;;;;;;;19.92;52.96;101976.44;5091340;28;20062;-79
2022/09/19 04:44:28;;;;;;;2.97;2.40;;;;;;;19.93;53.00;101985.16;5102035;28;20104;-79
2022/09/19 04:46:50;;;;;;;4.75;2.90;;;;;;;19.91;52.96;101979.91;5110168;28;21468;-80
2022/09/19 04:49:16;;;;;;;3.65;2.50;;;;;;;19.92;52.96;101980.78;5083820;27;20039;-80
2022/09/19 04:51:42;;;;;;;3.78;2.30;;;;;;;19.91;52.94;101982.53;5085229;27;20051;-78
2022/09/19 04:54:09;;;;;;;4.70;2.50;;;;;;;19.91;52.92;101992.13;5090827;28;20054;-78
2022/09/19 04:56:34;;;;;;;3.30;2.33;;;;;;;19.91;52.86;101985.16;5109278;27;20093;-81
2022/09/19 04:59:00;;;;;;;5.80;3.03;;;;;;;19.92;53.00;101984.28;5074774;28;20060;-81
2022/09/19 05:01:26;;;;;;;9.65;2.92;;;;;;;19.91;52.93;101984.28;5084176;27;20503;-79
2022/09/19 05:03:52;;;;;;;7.22;3.75;;;;;;;19.91;52.77;101985.16;5073715;28;20085;-80
2022/09/19 05:06:17;;;;;;;7.82;3.70;;;;;;;19.91;52.92;101990.38;5084312;28;20039;-79
2022/09/19 05:08:43;;;;;;;9.15;4.25;;;;;;;19.91;52.77;101985.16;5110054;27;20047;-81
2022/09/19 05:11:10;;;;;;;10.13;5.10;;;;;;;19.91;52.81;101990.38;5113291;27;20129;-81
2022/09/19 05:13:40;;;;;;;10.45;5.10;;;;;;;19.92;53.03;101997.34;5102597;27;20422;-80
2022/09/19 05:16:07;;;;;;;10.70;5.35;;;;;;;19.92;53.05;101994.75;5131627;27;20046;-81
2022/09/19 05:18:35;;;;;;;11.50;5.55;;;;;;;19.92;52.91;102002.56;5102759;27;20044;-80
2022/09/19 05:21:20;;;;;;;12.82;5.35;;;;;;;19.92;52.89;102001.69;5091705;28;20042;-81
2022/09/19 05:23:46;;;;;;;10.00;5.18;;;;;;;19.91;53.00;102000.81;5084142;27;20409;-82
2022/09/19 05:26:16;;;;;;;10.07;4.75;;;;;;;19.92;53.11;102004.28;5089638;28;20043;-80
2022/09/19 05:28:45;;;;;;;11.38;5.22;;;;;;;19.92;52.89;102006.91;5101127;27;20096;-82
2022/09/19 05:31:11;;;;;;;8.88;4.88;;;;;;;19.91;52.96;102011.28;5106758;28;20476;-78
2022/09/19 05:33:36;;;;;;;9.18;4.80;;;;;;;19.91;53.03;102024.34;5066384;28;20142;-78
2022/09/19 05:36:02;;;;;;;8.65;4.88;;;;;;;19.92;52.92;102009.53;5073892;28;20038;-80
2022/09/19 05:38:30;;;;;;;7.85;4.55;;;;;;;19.91;53.15;102021.72;5099909;27;20057;-80
2022/09/19 05:40:57;;;;;;;12.90;5.28;;;;;;;19.92;53.10;102022.59;5090949;28;20043;-79
2022/09/19 05:43:23;;;;;;;10.73;5.40;;;;;;;19.91;53.03;102013.88;5100361;28;20040;-79
2022/09/19 05:45:50;;;;;;;8.52;4.57;;;;;;;19.91;53.15;102011.28;5084888;27;20488;-78
2022/09/19 05:48:16;;;;;;;9.15;4.57;;;;;;;19.91;53.20;102021.72;5088310;28;20386;-78
2022/09/19 05:50:46;;;;;;;8.50;4.43;;;;;;;19.91;53.38;102024.34;5074572;27;20078;-78
2022/09/19 05:55:49;;;;;;;8.80;4.25;;;;;;;19.93;53.11;102029.56;5128959;27;20135;-79
2022/09/19 05:58:17;;;;;;;14.45;5.82;;;;;;;19.92;53.38;102028.69;5080309;28;20044;-81
2022/09/19 06:00:43;;;;;;;13.07;5.78;;;;;;;19.94;53.02;102031.28;5088853;28;20043;-80
2022/09/19 06:03:13;;;;;;;15.50;5.63;;;;;;;19.94;53.17;102036.50;5101010;28;20043;-79
2022/09/19 06:05:41;;;;;;;13.02;6.13;;;;;;;19.93;53.17;102035.66;5084499;27;20040;-82
2022/09/19 06:08:07;;;;;;;11.70;6.20;;;;;;;19.92;53.15;102033.94;5092881;28;20043;-82
2022/09/19 06:10:35;;;;;;;15.77;5.80;;;;;;;19.94;53.21;102046.97;5107424;27;20043;-81
2022/09/19 06:13:01;;;;;;;12.13;5.50;;;;;;;19.93;53.23;102040.00;5131727;27;20051;-82
2022/09/19 06:15:26;;;;;;;11.38;5.63;;;;;;;19.92;53.20;102039.16;5108854;27;20077;-82
2022/09/19 06:17:56;;;;;;;13.13;5.63;;;;;;;19.93;53.19;102045.25;5093776;28;20374;-81
2022/09/19 06:20:21;;;;;;;11.32;5.18;;;;;;;19.91;53.19;102042.63;5100863;28;20062;-81
2022/09/19 06:22:47;;;;;;;9.88;5.40;;;;;;;19.92;53.11;102040.88;5084456;27;20560;-81
2022/09/19 06:25:13;;;;;;;13.20;5.30;;;;;;;19.91;53.10;102045.22;5100819;28;20047;-82
2022/09/19 06:27:39;;;;;;;11.45;4.90;;;;;;;19.91;53.18;102050.44;5066727;27;20554;-82
2022/09/19 06:30:05;;;;;;;11.27;5.07;;;;;;;19.92;53.17;102053.94;5078496;28;20046;-82
2022/09/19 06:32:31;;;;;;;10.68;4.88;;;;;;;19.91;53.09;102055.69;5085446;28;20038;-81
2022/09/19 06:34:57;;;;;;;10.25;4.60;;;;;;;19.91;53.30;102063.50;5107723;28;20055;-80
2022/09/19 06:37:22;;;;;;;8.50;4.57;;;;;;;19.91;53.09;102055.69;5108423;28;20039;-81
2022/09/19 06:39:47;;;;;;;10.70;4.78;;;;;;;19.91;53.03;102057.44;5075906;28;20050;-82
2022/09/19 06:42:13;;;;;;;8.60;4.13;;;;;;;19.91;53.08;102057.44;5069927;28;20102;-80
2022/09/19 06:44:39;;;;;;;9.15;4.63;;;;;;;19.91;53.21;102062.66;5084234;27;20065;-81
2022/09/19 06:47:05;;;;;;;10.27;4.80;;;;;;;19.91;53.02;102062.66;5095255;28;20456;-81
2022/09/19 06:49:31;;;;;;;10.48;4.30;;;;;;;19.91;53.02;102063.50;5085004;28;20052;-81
2022/09/19 06:51:57;;;;;;;9.35;4.20;;;;;;;19.90;53.01;102073.97;5073364;28;20112;-81
2022/09/19 06:54:23;;;;;;;9.60;4.55;;;;;;;19.91;53.02;102075.72;5083461;28;20086;-82
2022/09/19 06:56:49;;;;;;;8.63;4.28;;;;;;;19.91;53.13;102073.09;5102239;27;20051;-81
2022/09/19 06:59:17;;;;;;;6.85;3.78;;;;;;;19.92;52.84;102080.94;5105643;28;20044;-80
2022/09/19 07:01:42;;;;;;;12.27;4.47;;;;;;;20.01;52.91;102079.19;5066966;28;20127;-81
2022/09/19 07:04:07;;;;;;;10.10;4.43;;;;;;;20.08;52.88;102078.34;5090209;28;20477;-82
2022/09/19 07:06:36;;;;;;;8.75;4.22;;;;;;;20.12;52.63;102078.34;5069216;28;20048;-82
2022/09/19 07:09:03;;;;;;;7.43;3.88;;;;;;;20.14;52.60;102081.81;5078209;28;20059;-80
2022/09/19 07:11:29;;;;;;;8.13;4.28;;;;;;;20.13;52.41;102090.50;5103252;27;20062;-79
2022/09/19 07:13:54;;;;;;;8.60;4.00;;;;;;;20.12;52.50;102086.19;5110935;28;20067;-80
2022/09/19 07:16:20;;;;;;;5.65;3.67;;;;;;;20.11;52.46;102099.22;5094822;27;20085;-80
2022/09/19 07:18:46;;;;;;;6.88;3.55;;;;;;;20.10;52.64;102097.50;5071623;27;20454;-80
2022/09/19 07:21:11;;;;;;;8.45;3.83;;;;;;;20.08;52.65;102097.50;5092097;28;20557;-80
2022/09/19 07:23:37;;;;;;;6.93;3.72;;;;;;;20.07;52.24;102107.94;5103118;27;20051;-81
2022/09/19 07:26:03;;;;;;;8.07;3.88;;;;;;;20.06;52.51;102103.59;5076323;28;20048;-80
2022/09/19 07:28:30;;;;;;;5.72;3.75;;;;;;;20.05;52.70;102113.16;5102693;28;20056;-82
2022/09/19 07:30:58;;;;;;;7.72;3.45;;;;;;;20.04;52.55;102110.56;5114326;27;20047;-81
2022/09/19 07:33:23;;;;;;;6.82;3.55;;;;;;;20.03;52.66;102114.03;5107171;28;20120;-80
2022/09/19 07:35:51;;;;;;;6.97;3.92;;;;;;;20.03;52.55;102120.13;5131505;27;20096;-79
2022/09/19 07:38:19;;;;;;;6.40;3.55;;;;;;;20.03;52.85;102121.88;5091132;28;20050;-80
2022/09/19 07:40:45;;;;;;;7.28;3.28;;;;;;;20.03;52.64;102114.91;5086634;27;20050;-80
2022/09/19 07:43:16;;;;;;;5.65;3.45;;;;;;;20.03;52.62;102117.50;5092061;28;20120;-79
2022/09/19 07:45:46;;;;;;;7.32;3.60;;;;;;;20.02;52.47;102107.94;5109424;27;20142;-82
2022/09/19 07:48:13;;;;;;;5.88;3.40;;;;;;;20.03;52.61;102114.03;5102894;28;20068;-81
2022/09/19 07:50:38;;;;;;;7.43;3.75;;;;;;;20.04;52.35;102107.94;5102644;27;20056;-82
2022/09/19 07:53:12;;;;;;;5.82;3.40;;;;;;;20.05;52.50;102120.13;5092174;28;20043;-80
2022/09/19 07:55:38;;;;;;;5.30;3.30;;;;;;;20.05;52.59;102130.59;5102863;27;20044;-80
2022/09/19 07:58:05;;;;;;;6.47;3.30;;;;;;;20.06;52.62;102127.97;5076157;28;20447;-79
2022/09/19 08:00:33;;;;;;;6.60;3.60;;;;;;;20.09;52.53;102124.50;5084702;28;20157;-80
2022/09/19 08:03:04;;;;;;;6.15;3.25;;;;;;;20.13;52.27;102132.31;5105670;27;20043;-79
2022/09/19 08:05:35;;;;;;;5.95;3.13;;;;;;;20.17;52.29;102137.56;5103682;27;20047;-80
2022/09/19 08:08:01;;;;;;;5.70;3.00;;;;;;;20.16;52.52;102144.53;5098474;28;20056;-79
2022/09/19 08:10:26;;;;;;;5.45;3.03;;;;;;;20.16;52.43;102151.50;5081866;28;20048;-79
2022/09/19 08:12:52;;;;;;;5.55;3.15;;;;;;;20.13;52.41;102147.16;5081311;28;20143;-79
2022/09/19 08:15:19;;;;;;;5.97;3.13;;;;;;;20.11;52.35;102141.03;5025660;28;1126683;-79
2022/09/19 08:17:56;;;;;;;5.57;3.00;;;;;;;20.09;52.38;102134.94;5099497;28;20035;-80
2022/09/19 08:20:22;;;;;;;5.75;3.15;;;;;;;20.07;52.11;102129.72;5098916;28;20052;-79
2022/09/19 08:22:47;;;;;;;5.03;2.90;;;;;;;20.07;52.46;102134.06;5066484;28;20051;-79
2022/09/19 08:25:12;;;;;;;4.97;3.13;;;;;;;20.05;52.40;102139.28;5082106;28;20371;-79
2022/09/19 08:27:38;;;;;;;4.68;2.83;;;;;;;20.04;52.45;102137.56;5081586;28;20121;-79
2022/09/19 08:30:04;;;;;;;5.47;3.05;;;;;;;20.03;52.38;102143.63;5065425;28;20040;-79
2022/09/19 08:32:31;;;;;;;4.32;2.83;;;;;;;20.04;52.60;102144.53;5107914;28;20048;-79
2022/09/19 08:34:56;;;;;;;6.75;3.17;;;;;;;20.02;52.61;102149.75;5076868;28;20055;-80
2022/09/19 08:37:21;;;;;;;4.35;3.10;;;;;;;20.03;52.89;102146.25;5060784;28;20382;-79
2022/09/19 08:42:44;;;;;;;4.47;2.88;;;;;;;20.07;52.32;102165.44;5101310;28;20051;-78
2022/09/19 08:47:50;;;;;;;4.13;2.55;;;;;;;20.07;52.55;102154.97;5094536;28;21671;-81
2022/09/19 08:52:54;;;;;;;6.63;2.80;;;;;;;20.06;52.50;102161.09;5119408;27;20941;-81
2022/09/19 08:58:02;;;;;;;4.85;2.95;;;;;;;20.08;52.43;102162.81;5112165;28;20085;-81
2022/09/19 09:00:41;;;;;;;4.57;2.60;;;;;;;20.13;52.31;102152.38;5099343;28;20394;-80
2022/09/19 09:03:14;;;;;;;5.85;2.55;;;;;;;20.15;52.42;102150.63;5098562;28;20047;-81
2022/09/19 09:05:55;;;;;;;5.53;2.60;;;;;;;20.16;52.30;102156.72;5098676;28;20140;-81
2022/09/19 09:10:55;;;;;;;4.78;2.40;;;;;;;20.18;52.47;102152.38;5088801;28;20048;-82
2022/09/19 09:16:14;;;;;;;4.80;2.67;;;;;;;20.19;52.33;102160.22;5109439;27;20787;-79
2022/09/19 09:18:50;;;;;;;5.30;2.40;;;;;;;20.22;52.16;102161.97;5108887;28;20047;-80
2022/09/19 09:23:57;;;;;;;4.00;2.47;;;;;;;20.25;52.24;102170.69;5100858;28;21234;-81
2022/09/19 09:29:03;;;;;;;4.38;2.20;;;;;;;20.22;52.20;102170.66;5116384;27;20093;-79
2022/09/19 09:31:38;;;;;;;4.53;2.50;;;;;;;20.21;52.37;102171.56;5096983;28;20048;-79
2022/09/19 09:34:12;;;;;;;3.20;2.20;;;;;;;20.20;52.35;102166.31;5096489;28;20075;-79
2022/09/19 09:36:42;;;;;;;3.28;2.13;;;;;;;20.21;52.34;102173.28;5096910;28;20048;-81
2022/09/19 09:39:23;;;;;;;3.55;2.40;;;;;;;20.20;52.38;102169.78;5097664;28;20044;-80
2022/09/19 09:41:59;;;;;;;4.57;2.40;;;;;;;20.19;52.37;102172.44;5101546;27;20389;-80
2022/09/19 09:44:43;;;;;;;4.43;2.50;;;;;;;20.19;52.35;102170.69;5104041;27;20043;-82
2022/09/19 09:47:21;;;;;;;3.58;2.42;;;;;;;20.19;52.26;102182.88;5095850;28;20048;-80
2022/09/19 09:49:48;;;;;;;3.55;2.25;;;;;;;20.19;52.36;102177.66;5098539;28;20122;-80
2022/09/19 09:57:57;;;;;;;4.38;2.30;;;;;;;20.16;52.27;102183.72;5109033;28;20090;-80
2022/09/19 10:05:50;;;;;;;3.42;1.92;;;;;;;20.20;52.45;102202.91;5108155;28;20074;-81
2022/09/19 10:10:59;;;;;;;4.30;2.20;;;;;;;20.20;52.32;102195.06;5108354;28;20105;-83
2022/09/19 10:15:54;;;;;;;5.15;2.35;;;;;;;20.16;52.45;102191.56;5108332;28;20486;-80
2022/09/19 10:18:21;;;;;;;3.97;1.98;;;;;;;20.16;52.54;102191.56;5097124;28;20047;-82
2022/09/19 10:20:51;;;;;;;3.92;1.90;;;;;;;20.17;52.38;102190.72;5080944;28;20162;-81
2022/09/19 10:26:03;;;;;;;3.00;1.90;;;;;;;20.17;52.36;102192.47;5108081;28;20065;-80
2022/09/19 10:28:43;;;;;;;3.60;1.73;;;;;;;20.18;52.53;102194.19;5095859;28;20044;-80
2022/09/19 10:33:50;;;;;;;3.90;2.08;;;;;;;20.22;52.43;102193.31;5107980;28;20172;-80
2022/09/19 10:36:20;;;;;;;2.70;1.60;;;;;;;20.22;52.40;102204.66;5079963;28;20040;-79
2022/09/19 10:38:56;;;;;;;4.65;2.28;;;;;;;20.23;52.54;102198.56;5097766;28;20543;-81
2022/09/19 10:41:25;;;;;;;3.53;1.90;;;;;;;20.22;52.47;102203.78;5097357;28;20071;-83
2022/09/19 10:43:52;;;;;;;3.08;1.85;;;;;;;20.23;52.24;102202.91;5107961;28;20054;-83
2022/09/19 10:48:56;;;;;;;4.00;2.08;;;;;;;20.25;52.62;102209.91;5099463;28;20731;-81
2022/09/19 10:53:56;;;;;;;3.65;1.90;;;;;;;20.28;52.22;102219.47;5099104;28;20163;-82
2022/09/19 10:59:01;;;;;;;2.88;1.75;;;;;;;20.27;52.47;102210.78;5108784;28;21242;-81
2022/09/19 11:01:27;;;;;;;3.53;1.98;;;;;;;20.28;52.30;102209.03;5103076;28;20052;-81
2022/09/19 11:03:59;;;;;;;3.42;1.90;;;;;;;20.29;52.28;102210.75;5071642;28;20105;-82
2022/09/19 11:06:25;;;;;;;4.27;1.90;;;;;;;20.29;52.49;102213.38;5085328;28;20048;-80
2022/09/19 11:08:53;;;;;;;3.05;1.73;;;;;;;20.30;52.25;102212.50;5093914;28;20051;-80
2022/09/19 11:11:25;;;;;;;3.63;2.13;;;;;;;20.29;52.41;102216.84;5087023;28;20075;-81
2022/09/19 11:14:10;;;;;;;3.15;1.83;;;;;;;20.30;52.26;102218.59;5096047;28;20486;-81
2022/09/19 11:17:00;;;;;;;1.85;1.50;;;;;;;20.29;52.21;102227.28;5098520;28;20138;-81
2022/09/19 11:20:04;;;;;;;2.63;1.70;;;;;;;20.30;52.37;102221.22;5096424;28;20055;-81
2022/09/19 11:22:49;;;;;;;3.40;1.80;;;;;;;20.30;52.28;102220.34;5094301;28;20048;-80
2022/09/19 11:27:56;;;;;;;2.50;1.60;;;;;;;20.28;52.14;102211.63;5108640;28;20082;-80
2022/09/19 11:33:16;;;;;;;3.53;1.60;;;;;;;20.25;52.33;102220.34;5112142;28;21200;-83
2022/09/19 11:35:59;;;;;;;3.13;1.73;;;;;;;20.25;52.48;102217.75;5097378;28;20048;-82
2022/09/19 11:41:13;;;;;;;2.60;1.80;;;;;;;20.24;52.44;102215.97;5108284;28;20121;-81
2022/09/19 11:44:17;;;;;;;2.75;1.73;;;;;;;20.25;52.33;102217.75;5089081;28;20044;-82
2022/09/19 11:46:58;;;;;;;2.80;1.70;;;;;;;20.26;52.45;102218.59;5091161;28;20469;-81
2022/09/19 11:52:11;;;;;;;2.55;1.45;;;;;;;20.28;52.30;102225.56;5118041;27;20865;-80
2022/09/19 11:54:55;;;;;;;2.17;1.55;;;;;;;20.28;52.49;102225.56;5099595;28;20079;-83
2022/09/19 12:00:14;;;;;;;2.50;1.55;;;;;;;20.26;52.44;102222.06;5090159;28;20097;-81
2022/09/19 12:03:25;;;;;;;2.22;1.25;;;;;;;20.26;52.43;102223.81;5099194;28;20047;-80
2022/09/19 12:06:16;;;;;;;2.70;1.50;;;;;;;20.25;52.48;102232.53;5089274;28;20058;-79
2022/09/19 12:09:22;;;;;;;2.15;1.50;;;;;;;20.25;52.36;102232.53;5100340;28;20047;-80
2022/09/19 12:11:55;;;;;;;2.50;1.60;;;;;;;20.25;52.43;102230.81;5098911;28;20051;-80
2022/09/19 12:16:55;;;;;;;1.98;1.50;;;;;;;20.23;52.41;102229.94;5110515;28;20083;-82
2022/09/19 12:21:55;;;;;;;2.78;1.55;;;;;;;20.23;52.48;102214.25;5102207;28;20047;-80
2022/09/19 12:27:00;;;;;;;1.70;1.33;;;;;;;20.24;52.53;102210.75;5118584;27;20208;-81
2022/09/19 12:29:33;;;;;;;2.08;1.45;;;;;;;20.26;52.52;102221.22;5099126;28;20046;-80
2022/09/19 12:32:14;;;;;;;2.50;1.45;;;;;;;20.26;52.82;102213.38;5060271;28;1083713;-81
2022/09/19 12:34:59;;;;;;;2.13;1.45;;;;;;;20.26;52.77;102222.06;5098718;28;20056;-80
2022/09/19 12:40:03;;;;;;;1.97;1.30;;;;;;;20.26;52.82;102216.84;5085449;28;20062;-79
2022/09/19 12:42:43;;;;;;;2.28;1.50;;;;;;;20.27;52.92;102213.38;5099005;27;20055;-79
2022/09/19 12:47:58;;;;;;;2.65;1.40;;;;;;;20.30;52.78;102218.59;5122406;27;21774;-81
2022/09/19 12:53:03;;;;;;;2.55;1.20;;;;;;;20.32;52.88;102211.63;5130445;27;20051;-79
2022/09/19 12:55:39;;;;;;;2.13;1.23;;;;;;;20.33;52.92;102215.13;5104351;28;20047;-80
2022/09/19 13:00:53;;;;;;;2.15;1.42;;;;;;;20.33;52.72;102212.50;5129998;27;20132;-82
2022/09/19 13:05:55;;;;;;;2.35;1.15;;;;;;;20.35;52.69;102203.78;5130276;27;20065;-81
2022/09/19 13:08:24;;;;;;;1.95;1.17;;;;;;;20.36;52.83;102215.13;5105997;28;20040;-80
2022/09/19 13:11:22;;;;;;;2.22;1.27;;;;;;;20.37;52.85;102202.94;5099707;28;20375;-80
2022/09/19 13:13:58;;;;;;;2.10;1.50;;;;;;;20.37;53.00;102203.78;5103002;27;20541;-82
2022/09/19 13:26:56;;;;;;;2.70;1.40;;;;;;;20.42;52.86;102217.72;5138384;27;20733;-82
2022/09/19 13:31:55;;;;;;;2.03;1.42;;;;;;;20.43;52.54;102221.25;5133666;27;20043;-81
2022/09/19 13:36:51;;;;;;;3.00;1.20;;;;;;;20.42;53.08;102229.94;5130684;27;20047;-82
2022/09/19 13:41:54;;;;;;;1.83;0.93;;;;;;;20.41;52.77;102236.06;5130314;27;20047;-80
2022/09/19 13:47:11;;;;;;;2.67;1.30;;;;;;;20.39;52.78;102237.78;5120652;27;20043;-83
2022/09/19 13:49:53;;;;;;;2.72;1.33;;;;;;;20.37;52.74;102234.31;5102980;27;20412;-82